Westhoff, Texas
Current Conditions -  °F | °C
As of 5:55 PM on Monday 20 Oct 2014 (Local Time) from KT20 Reporting Station
Clear Clear  
Wind Chill: 81°   Ceiling: Unl
Heat Index: 82°   Visibility: 10mi
Dew Point: 61°   Wind: 7mph
Humidity: 50%   Direction: 80°E
Pressure: 29.97"   Gusts: NA
Location:  29.2°N, 97.47°W
Report Text: KT20 202255Z AUTO 08006KT 10SM CLR 27/16 A2997 RMK AO2 T02710160
Loading
Personal Weather Stations






























Interactive Weather Map
Tropical Storm Tracking
New forecast layout! Learn more

10-Day Weather Forecast

Advertisements
Track Severe Weather on mobile